| time (UTC) | temp C | wind direction | speed KPH | gust KPH | rain 1hr cm | rain 24hr cm | rain mn cm | humidity % | barometer mb |
| 20260503174206 | 20 | 276 | 4.8 | 20.9 | 0.03 | 0.64 | 0.25 | 47 | 1019.1 |
| 20260503173206 | 20 | 319 | 6.4 | 14.5 | 0.03 | 0.64 | 0.25 | 50 | 1019.2 |
| 20260503172708 | 19 | 301 | 3.2 | 11.3 | 0.03 | 0.64 | 0.25 | 51 | 1019.2 |
| 20260503172207 | 19 | 260 | 4.8 | 14.5 | 0.03 | 0.64 | 0.25 | 50 | 1019.2 |
| 20260503171706 | 19 | 282 | 8.0 | 14.5 | 0.03 | 0.66 | 0.25 | 46 | 1019.2 |
| 20260503171206 | 19 | 93 | 4.8 | 11.3 | 0.05 | 0.66 | 0.25 | 45 | 1019.2 |
| 20260503170707 | 19 | 1 | 4.8 | 11.3 | 0.03 | 0.64 | 0.23 | 49 | 1019.4 |
| 20260503170206 | 19 | 308 | 4.8 | 11.3 | 0.03 | 0.64 | 0.23 | 48 | 1019.5 |
| 20260503150707 | 17 | 65 | 4.8 | 12.9 | 0.03 | 0.71 | 0.20 | 50 | 1020.4 |
| 20260503150206 | 17 | 9 | 8.0 | 14.5 | 0.03 | 0.71 | 0.20 | 47 | 1020.4 |
| 20260503131206 | 13 | 335 | 8.0 | 14.5 | 0.00 | 0.71 | 0.15 | 73 | 1019.6 |
| 20260503130706 | 13 | 344 | 3.2 | 12.9 | 0.00 | 0.71 | 0.15 | 76 | 1019.6 |
| 20260503130206 | 13 | 358 | 8.0 | 14.5 | 0.00 | 0.71 | 0.15 | 75 | 1019.6 |
| 20260503120206 | 10 | 320 | 3.2 | 8.0 | 0.03 | 0.74 | 0.15 | 92 | 1019.2 |
| 20260503110206 | 9 | 353 | 1.6 | 4.8 | 0.03 | 0.76 | 0.13 | 94 | 1018.3 |
| 20260503100206 | 8 | 312 | 0.0 | 1.6 | 0.00 | 0.76 | 0.10 | 94 | 1017.3 |
| 20260503090206 | 6 | 327 | 0.0 | 0.0 | 0.03 | 0.81 | 0.10 | 92 | 1016.9 |
| 20260503080707 | 7 | 327 | 0.0 | 0.0 | 0.00 | 0.91 | 0.08 | 91 | 1016.3 |
| 20260503080206 | 7 | 327 | 0.0 | 0.0 | 0.00 | 0.91 | 0.08 | 91 | 1016.3 |
| 20260503072708 | 9 | 327 | 0.0 | 0.0 | 0.03 | 0.94 | 0.08 | 92 | 1016.1 |
| 20260503072206 | 9 | 327 | 0.0 | 0.0 | 0.03 | 0.94 | 0.08 | 92 | 1016.1 |
| 20260503071206 | 10 | 327 | 0.0 | 0.0 | 0.03 | 0.94 | 0.08 | 92 | 1016.0 |
| 20260503070706 | 10 | 327 | 0.0 | 0.0 | 0.03 | 0.94 | 0.08 | 92 | 1015.9 |
| 20260503070206 | 10 | 327 | 0.0 | 0.0 | 0.03 | 0.94 | 0.08 | 92 | 1015.9 |
| 20260503054706 | 11 | 303 | 0.0 | 1.6 | 0.03 | 0.91 | 0.05 | 92 | 1015.5 |
| 20260503054205 | 11 | 303 | 0.0 | 1.6 | 0.03 | 0.91 | 0.05 | 92 | 1015.4 |
| 20260503053706 | 11 | 303 | 1.6 | 3.2 | 0.03 | 0.91 | 0.05 | 92 | 1015.4 |
| 20260503053206 | 11 | 306 | 0.0 | 1.6 | 0.00 | 0.89 | 0.03 | 92 | 1015.5 |
| 20260503052708 | 11 | 336 | 1.6 | 4.8 | 0.00 | 0.89 | 0.03 | 92 | 1015.5 |
| 20260503052207 | 11 | 11 | 0.0 | 0.0 | 0.03 | 0.89 | 0.03 | 92 | 1015.4 |
| 20260503051705 | 11 | 323 | 0.0 | 3.2 | 0.03 | 0.89 | 0.03 | 92 | 1015.3 |
| 20260503051207 | 11 | 312 | 3.2 | 4.8 | 0.03 | 0.89 | 0.03 | 92 | 1015.5 |
| 20260503050706 | 11 | 328 | 1.6 | 4.8 | 0.03 | 0.89 | 0.03 | 92 | 1015.3 |
| 20260503050206 | 11 | 331 | 1.6 | 8.0 | 0.03 | 0.89 | 0.03 | 92 | 1015.2 |
| 20260503045706 | 11 | 14 | 1.6 | 4.8 | 0.03 | 0.89 | 0.03 | 92 | 1015.2 |
| 20260503045206 | 11 | 308 | 1.6 | 8.0 | 0.03 | 0.89 | 0.03 | 92 | 1015.2 |
| 20260503044705 | 11 | 323 | 3.2 | 4.8 | 0.03 | 0.89 | 0.03 | 92 | 1015.1 |
| 20260503044206 | 11 | 321 | 3.2 | 8.0 | 0.03 | 0.89 | 0.03 | 92 | 1015.2 |
| 20260503043707 | 11 | 308 | 3.2 | 4.8 | 0.03 | 0.89 | 0.03 | 92 | 1015.1 |
| 20260503043206 | 11 | 317 | 1.6 | 4.8 | 0.03 | 0.89 | 0.03 | 92 | 1015.0 |
| 20260503042708 | 11 | 323 | 1.6 | 3.2 | 0.03 | 0.89 | 0.03 | 92 | 1014.8 |
| 20260503041705 | 11 | 350 | 0.0 | 4.8 | 0.03 | 0.86 | 0.00 | 92 | 1014.5 |
| 20260503040707 | 11 | 291 | 1.6 | 4.8 | 0.03 | 0.89 | 0.00 | 92 | 1014.7 |
| 20260503035705 | 11 | 339 | 1.6 | 4.8 | 0.03 | 0.89 | 0.89 | 92 | 1014.6 |
| 20260503035207 | 12 | 305 | 1.6 | 4.8 | 0.03 | 0.89 | 0.89 | 92 | 1014.6 |
| 20260503034706 | 12 | 321 | 0.0 | 8.0 | 0.03 | 0.89 | 0.89 | 92 | 1014.5 |
| 20260503034206 | 12 | 350 | 1.6 | 8.0 | 0.03 | 0.89 | 0.89 | 92 | 1014.5 |
| 20260503033707 | 12 | 330 | 0.0 | 3.2 | 0.03 | 0.89 | 0.89 | 92 | 1014.3 |
| 20260503033206 | 12 | 311 | 1.6 | 9.7 | 0.03 | 0.89 | 0.89 | 92 | 1014.3 |
| 20260503032708 | 12 | 337 | 1.6 | 3.2 | 0.03 | 0.89 | 0.89 | 92 | 1014.2 |
| 20260503032206 | 12 | 288 | 1.6 | 4.8 | 0.05 | 0.89 | 0.89 | 91 | 1014.2 |
| 20260503031706 | 12 | 336 | 3.2 | 9.7 | 0.03 | 0.86 | 0.86 | 91 | 1014.2 |
| 20260503031206 | 12 | 324 | 1.6 | 9.7 | 0.03 | 0.86 | 0.86 | 91 | 1014.1 |
| 20260503030706 | 12 | 329 | 3.2 | 8.0 | 0.03 | 0.86 | 0.86 | 91 | 1014.0 |
| 20260503025706 | 12 | 346 | 0.0 | 3.2 | 0.03 | 0.86 | 0.86 | 91 | 1013.9 |
| 20260503025206 | 12 | 354 | 3.2 | 9.7 | 0.03 | 0.86 | 0.86 | 91 | 1014.0 |
| 20260503024706 | 12 | 328 | 3.2 | 4.8 | 0.03 | 0.86 | 0.86 | 91 | 1014.1 |
| 20260503023706 | 12 | 335 | 3.2 | 9.7 | 0.03 | 0.86 | 0.86 | 91 | 1013.9 |
| 20260503023207 | 12 | 8 | 1.6 | 8.0 | 0.05 | 0.86 | 0.86 | 91 | 1013.8 |
| 20260503022708 | 12 | 324 | 1.6 | 8.0 | 0.05 | 0.86 | 0.86 | 91 | 1013.8 |
| 20260503022207 | 12 | 338 | 1.6 | 8.0 | 0.03 | 0.84 | 0.84 | 91 | 1013.6 |
| 20260503021705 | 12 | 342 | 1.6 | 4.8 | 0.03 | 0.84 | 0.84 | 91 | 1013.5 |
| 20260503021206 | 12 | 340 | 3.2 | 4.8 | 0.03 | 0.84 | 0.84 | 91 | 1013.4 |
| 20260503020707 | 12 | 43 | 1.6 | 4.8 | 0.03 | 0.84 | 0.84 | 91 | 1013.3 |
| 20260503015706 | 12 | 346 | 1.6 | 8.0 | 0.03 | 0.84 | 0.84 | 91 | 1013.6 |
| 20260503015206 | 12 | 347 | 1.6 | 8.0 | 0.03 | 0.84 | 0.84 | 91 | 1013.4 |
| 20260503014706 | 12 | 313 | 3.2 | 8.0 | 0.03 | 0.84 | 0.84 | 91 | 1013.4 |
| 20260503014205 | 12 | 328 | 3.2 | 8.0 | 0.05 | 0.84 | 0.84 | 91 | 1013.4 |
| 20260503013706 | 12 | 314 | 4.8 | 11.3 | 0.05 | 0.84 | 0.84 | 91 | 1013.4 |
| 20260503013207 | 12 | 358 | 3.2 | 8.0 | 0.03 | 0.81 | 0.81 | 91 | 1013.2 |
| 20260503012708 | 12 | 344 | 3.2 | 8.0 | 0.03 | 0.81 | 0.81 | 91 | 1013.0 |
| 20260503012208 | 12 | 19 | 1.6 | 9.7 | 0.03 | 0.81 | 0.81 | 91 | 1012.9 |
| 20260503011207 | 12 | 94 | 0.0 | 3.2 | 0.03 | 0.81 | 0.81 | 91 | 1012.6 |
| 20260503010708 | 12 | 40 | 0.0 | 3.2 | 0.03 | 0.81 | 0.81 | 91 | 1012.6 |
| 20260503010208 | 13 | 6 | 1.6 | 3.2 | 0.03 | 0.81 | 0.81 | 91 | 1012.7 |
| 20260503005707 | 12 | 318 | 0.0 | 1.6 | 0.03 | 0.81 | 0.81 | 91 | 1012.7 |
| 20260503005207 | 13 | 314 | 0.0 | 3.2 | 0.05 | 0.81 | 0.81 | 91 | 1012.7 |
| 20260503004207 | 13 | 332 | 1.6 | 3.2 | 0.03 | 0.79 | 0.79 | 91 | 1012.5 |
| 20260503003708 | 13 | 311 | 4.8 | 11.3 | 0.03 | 0.79 | 0.79 | 91 | 1012.5 |
| 20260503002710 | 13 | 324 | 4.8 | 11.3 | 0.03 | 0.79 | 0.79 | 91 | 1012.2 |
| 20260503002207 | 13 | 3 | 4.8 | 12.9 | 0.03 | 0.79 | 0.79 | 91 | 1012.1 |
| 20260503001707 | 13 | 345 | 1.6 | 11.3 | 0.03 | 0.79 | 0.79 | 90 | 1012.0 |
| 20260503001208 | 13 | 35 | 1.6 | 4.8 | 0.05 | 0.79 | 0.79 | 91 | 1011.8 |
| 20260503000707 | 13 | 12 | 3.2 | 8.0 | 0.05 | 0.79 | 0.79 | 91 | 1011.7 |
| 20260503000208 | 13 | 351 | 6.4 | 12.9 | 0.05 | 0.79 | 0.79 | 90 | 1011.6 |
| 20260502235707 | 13 | 319 | 4.8 | 12.9 | 0.05 | 0.79 | 0.79 | 90 | 1011.5 |
| 20260502234207 | 13 | 287 | 4.8 | 14.5 | 0.03 | 0.76 | 0.76 | 91 | 1011.4 |
| 20260502233708 | 13 | 328 | 8.0 | 14.5 | 0.03 | 0.76 | 0.76 | 91 | 1011.4 |
| 20260502233207 | 13 | 314 | 4.8 | 9.7 | 0.05 | 0.76 | 0.76 | 91 | 1011.4 |
| 20260502232708 | 13 | 327 | 1.6 | 4.8 | 0.05 | 0.76 | 0.76 | 91 | 1011.4 |
| 20260502232208 | 13 | 299 | 3.2 | 12.9 | 0.05 | 0.76 | 0.76 | 91 | 1011.3 |
| 20260502231708 | 13 | 338 | 3.2 | 9.7 | 0.05 | 0.76 | 0.76 | 91 | 1011.3 |
| 20260502231207 | 13 | 319 | 4.8 | 11.3 | 0.03 | 0.74 | 0.74 | 91 | 1011.2 |
| 20260502230206 | 13 | 339 | 4.8 | 11.3 | 0.03 | 0.74 | 0.74 | 91 | 1011.2 |
| 20260502225707 | 14 | 333 | 3.2 | 9.7 | 0.03 | 0.74 | 0.74 | 91 | 1011.1 |
| 20260502225208 | 14 | 6 | 3.2 | 8.0 | 0.05 | 0.74 | 0.74 | 91 | 1011.2 |
| 20260502224208 | 14 | 323 | 3.2 | 8.0 | 0.05 | 0.74 | 0.74 | 91 | 1011.3 |
| 20260502223707 | 14 | 305 | 1.6 | 8.0 | 0.05 | 0.74 | 0.74 | 91 | 1011.2 |
| 20260502223207 | 14 | 334 | 3.2 | 11.3 | 0.03 | 0.71 | 0.71 | 91 | 1011.2 |
| 20260502222709 | 14 | 313 | 1.6 | 8.0 | 0.03 | 0.71 | 0.71 | 91 | 1011.2 |
| 20260502222207 | 14 | 349 | 3.2 | 9.7 | 0.03 | 0.71 | 0.71 | 91 | 1011.1 |
| 20260502221708 | 14 | 351 | 4.8 | 11.3 | 0.05 | 0.71 | 0.71 | 91 | 1011.0 |
| 20260502220707 | 14 | 344 | 4.8 | 12.9 | 0.05 | 0.71 | 0.71 | 91 | 1011.0 |
| 20260502215707 | 14 | 323 | 3.2 | 9.7 | 0.05 | 0.71 | 0.71 | 91 | 1011.1 |
| 20260502215207 | 14 | 313 | 1.6 | 9.7 | 0.03 | 0.69 | 0.69 | 91 | 1011.1 |
| 20260502214707 | 14 | 317 | 3.2 | 9.7 | 0.03 | 0.69 | 0.69 | 91 | 1010.9 |
| 20260502213707 | 14 | 309 | 3.2 | 14.5 | 0.05 | 0.69 | 0.69 | 91 | 1010.8 |
| 20260502213207 | 14 | 312 | 3.2 | 11.3 | 0.05 | 0.69 | 0.69 | 91 | 1010.7 |
| 20260502211707 | 14 | 350 | 3.2 | 8.0 | 0.03 | 0.66 | 0.66 | 91 | 1010.4 |
| 20260502211208 | 14 | 25 | 3.2 | 11.3 | 0.03 | 0.66 | 0.66 | 91 | 1010.3 |
| 20260502210718 | 14 | 343 | 1.6 | 8.0 | 0.05 | 0.66 | 0.66 | 91 | 1010.5 |
| 20260502210207 | 14 | 32 | 1.6 | 4.8 | 0.05 | 0.66 | 0.66 | 91 | 1010.4 |
| 20260502205707 | 14 | 340 | 3.2 | 8.0 | 0.05 | 0.66 | 0.66 | 91 | 1010.4 |
| 20260502205207 | 14 | 50 | 1.6 | 9.7 | 0.05 | 0.66 | 0.66 | 91 | 1010.3 |
| 20260502204706 | 14 | 342 | 3.2 | 11.3 | 0.05 | 0.66 | 0.66 | 91 | 1010.3 |
| 20260502204208 | 14 | 353 | 3.2 | 9.7 | 0.03 | 0.64 | 0.64 | 91 | 1010.3 |
| 20260502203707 | 14 | 12 | 3.2 | 9.7 | 0.03 | 0.64 | 0.64 | 91 | 1010.5 |
| 20260502203207 | 14 | 23 | 1.6 | 4.8 | 0.05 | 0.64 | 0.64 | 91 | 1010.6 |
| 20260502202708 | 14 | 344 | 3.2 | 8.0 | 0.05 | 0.64 | 0.64 | 91 | 1010.6 |
| 20260502202207 | 14 | 31 | 0.0 | 1.6 | 0.05 | 0.64 | 0.64 | 91 | 1010.5 |
| 20260502201207 | 14 | 356 | 4.8 | 14.5 | 0.05 | 0.64 | 0.64 | 91 | 1010.2 |
| 20260502200708 | 14 | 341 | 3.2 | 12.9 | 0.03 | 0.61 | 0.61 | 91 | 1010.2 |
| 20260502200207 | 14 | 9 | 1.6 | 8.0 | 0.03 | 0.61 | 0.61 | 91 | 1010.3 |
| 20260502195707 | 14 | 27 | 1.6 | 11.3 | 0.05 | 0.61 | 0.61 | 91 | 1010.3 |
| 20260502195208 | 14 | 22 | 3.2 | 9.7 | 0.05 | 0.61 | 0.61 | 91 | 1010.4 |
| 20260502194707 | 14 | 12 | 3.2 | 14.5 | 0.05 | 0.61 | 0.61 | 91 | 1010.3 |
| 20260502194207 | 14 | 24 | 4.8 | 20.9 | 0.05 | 0.61 | 0.61 | 91 | 1010.1 |
| 20260502193708 | 14 | 56 | 3.2 | 9.7 | 0.05 | 0.61 | 0.61 | 91 | 1010.2 |
| 20260502193208 | 14 | 345 | 1.6 | 4.8 | 0.03 | 0.58 | 0.58 | 91 | 1010.2 |
| 20260502192709 | 14 | 3 | 1.6 | 8.0 | 0.05 | 0.58 | 0.58 | 90 | 1010.6 |
| 20260502191207 | 14 | 346 | 3.2 | 8.0 | 0.05 | 0.58 | 0.58 | 91 | 1010.6 |
| 20260502190707 | 14 | 65 | 4.8 | 9.7 | 0.05 | 0.58 | 0.58 | 91 | 1010.3 |
| 20260502190207 | 14 | 349 | 4.8 | 12.9 | 0.05 | 0.58 | 0.58 | 91 | 1010.3 |
| 20260502185706 | 14 | 9 | 1.6 | 9.7 | 0.03 | 0.56 | 0.56 | 91 | 1010.3 |
| 20260502184207 | 14 | 43 | 3.2 | 9.7 | 0.05 | 0.56 | 0.56 | 91 | 1010.2 |
| 20260502183708 | 14 | 11 | 6.4 | 12.9 | 0.05 | 0.56 | 0.56 | 91 | 1010.3 |
| 20260502183207 | 15 | 2 | 4.8 | 12.9 | 0.05 | 0.56 | 0.56 | 91 | 1010.3 |
| 20260502182710 | 15 | 56 | 3.2 | 11.3 | 0.03 | 0.53 | 0.53 | 91 | 1010.2 |
| 20260502181707 | 14 | 19 | 4.8 | 9.7 | 0.05 | 0.53 | 0.53 | 91 | 1010.6 |
| 20260502181207 | 14 | 5 | 6.4 | 12.9 | 0.05 | 0.53 | 0.53 | 91 | 1010.8 |
| 20260502180708 | 14 | 354 | 3.2 | 8.0 | 0.05 | 0.53 | 0.53 | 91 | 1010.8 |